sensor_id;sensor_type;location;lat;lon;timestamp;temperature;humidity
13115;DHT22;6623;52.120;8.660;2022-10-26T00:00:41;10.60;90.70
13115;DHT22;6623;52.120;8.660;2022-10-26T00:03:06;10.20;90.60
13115;DHT22;6623;52.120;8.660;2022-10-26T00:05:32;11.00;90.80
13115;DHT22;6623;52.120;8.660;2022-10-26T00:07:58;10.20;90.60
13115;DHT22;6623;52.120;8.660;2022-10-26T00:10:24;10.70;90.70
13115;DHT22;6623;52.120;8.660;2022-10-26T00:12:49;10.20;90.60
13115;DHT22;6623;52.120;8.660;2022-10-26T00:15:16;10.70;90.70
13115;DHT22;6623;52.120;8.660;2022-10-26T00:17:41;10.10;90.60
13115;DHT22;6623;52.120;8.660;2022-10-26T00:20:07;10.50;90.70
13115;DHT22;6623;52.120;8.660;2022-10-26T00:22:32;10.10;90.60
13115;DHT22;6623;52.120;8.660;2022-10-26T00:24:58;10.90;90.80
13115;DHT22;6623;52.120;8.660;2022-10-26T00:27:23;9.90;90.50
13115;DHT22;6623;52.120;8.660;2022-10-26T00:29:49;10.10;90.60
13115;DHT22;6623;52.120;8.660;2022-10-26T00:32:14;10.90;90.80
13115;DHT22;6623;52.120;8.660;2022-10-26T00:34:39;10.00;90.60
13115;DHT22;6623;52.120;8.660;2022-10-26T00:37:05;11.30;90.90
13115;DHT22;6623;52.120;8.660;2022-10-26T00:39:30;10.00;90.80
13115;DHT22;6623;52.120;8.660;2022-10-26T00:41:56;10.50;90.80
13115;DHT22;6623;52.120;8.660;2022-10-26T00:44:43;10.80;90.90
13115;DHT22;6623;52.120;8.660;2022-10-26T00:49:41;10.00;90.60
13115;DHT22;6623;52.120;8.660;2022-10-26T00:52:10;10.00;90.70
13115;DHT22;6623;52.120;8.660;2022-10-26T00:54:36;10.00;90.70
13115;DHT22;6623;52.120;8.660;2022-10-26T00:57:02;10.40;90.80
13115;DHT22;6623;52.120;8.660;2022-10-26T00:59:27;10.00;90.70
13115;DHT22;6623;52.120;8.660;2022-10-26T01:01:53;9.90;90.70
13115;DHT22;6623;52.120;8.660;2022-10-26T01:04:18;10.40;90.90
13115;DHT22;6623;52.120;8.660;2022-10-26T01:06:44;9.90;90.80
13115;DHT22;6623;52.120;8.660;2022-10-26T01:09:10;9.90;90.80
13115;DHT22;6623;52.120;8.660;2022-10-26T01:11:36;9.90;90.90
13115;DHT22;6623;52.120;8.660;2022-10-26T01:14:02;9.90;90.90
13115;DHT22;6623;52.120;8.660;2022-10-26T01:34:43;10.00;91.10
13115;DHT22;6623;52.120;8.660;2022-10-26T01:37:19;10.50;91.20
13115;DHT22;6623;52.120;8.660;2022-10-26T01:39:47;9.80;91.00
13115;DHT22;6623;52.120;8.660;2022-10-26T01:42:16;10.90;91.30
13115;DHT22;6623;52.120;8.660;2022-10-26T01:44:44;9.80;91.00
13115;DHT22;6623;52.120;8.660;2022-10-26T01:47:13;9.80;91.00
13115;DHT22;6623;52.120;8.660;2022-10-26T01:49:44;9.80;91.00
13115;DHT22;6623;52.120;8.660;2022-10-26T01:52:11;9.80;91.00
13115;DHT22;6623;52.120;8.660;2022-10-26T01:54:36;9.80;91.00
13115;DHT22;6623;52.120;8.660;2022-10-26T01:57:03;9.80;91.00
13115;DHT22;6623;52.120;8.660;2022-10-26T02:02:23;9.80;91.10
13115;DHT22;6623;52.120;8.660;2022-10-26T02:10:03;10.40;91.30
13115;DHT22;6623;52.120;8.660;2022-10-26T02:14:59;9.90;91.20
13115;DHT22;6623;52.120;8.660;2022-10-26T02:17:33;9.70;91.10
13115;DHT22;6623;52.120;8.660;2022-10-26T02:20:02;9.80;91.10
13115;DHT22;6623;52.120;8.660;2022-10-26T02:22:35;9.70;91.10
13115;DHT22;6623;52.120;8.660;2022-10-26T02:25:13;9.70;91.10
13115;DHT22;6623;52.120;8.660;2022-10-26T02:27:41;9.70;91.10
13115;DHT22;6623;52.120;8.660;2022-10-26T02:30:08;9.60;91.00
13115;DHT22;6623;52.120;8.660;2022-10-26T02:32:35;9.70;90.90
13115;DHT22;6623;52.120;8.660;2022-10-26T02:35:02;9.70;90.90
13115;DHT22;6623;52.120;8.660;2022-10-26T02:37:28;9.70;90.80
13115;DHT22;6623;52.120;8.660;2022-10-26T02:39:54;9.80;90.70
13115;DHT22;6623;52.120;8.660;2022-10-26T02:42:21;9.60;90.60
13115;DHT22;6623;52.120;8.660;2022-10-26T02:44:51;9.80;90.60
13115;DHT22;6623;52.120;8.660;2022-10-26T02:47:18;9.60;90.60
13115;DHT22;6623;52.120;8.660;2022-10-26T02:49:45;10.10;90.70
13115;DHT22;6623;52.120;8.660;2022-10-26T02:52:33;9.50;90.50
13115;DHT22;6623;52.120;8.660;2022-10-26T02:55:07;9.50;90.50
13115;DHT22;6623;52.120;8.660;2022-10-26T02:57:36;9.50;90.50
13115;DHT22;6623;52.120;8.660;2022-10-26T03:00:04;9.50;90.50
13115;DHT22;6623;52.120;8.660;2022-10-26T03:02:30;9.50;90.90
13115;DHT22;6623;52.120;8.660;2022-10-26T03:04:56;11.00;91.00
13115;DHT22;6623;52.120;8.660;2022-10-26T03:07:29;9.50;90.60
13115;DHT22;6623;52.120;8.660;2022-10-26T03:09:54;9.60;90.70
13115;DHT22;6623;52.120;8.660;2022-10-26T03:12:20;10.50;90.90
13115;DHT22;6623;52.120;8.660;2022-10-26T03:14:45;10.00;90.80
13115;DHT22;6623;52.120;8.660;2022-10-26T03:17:11;9.80;90.70
13115;DHT22;6623;52.120;8.660;2022-10-26T03:19:36;9.40;90.60
13115;DHT22;6623;52.120;8.660;2022-10-26T03:22:02;9.40;90.60
13115;DHT22;6623;52.120;8.660;2022-10-26T03:24:27;9.40;90.60
13115;DHT22;6623;52.120;8.660;2022-10-26T03:26:53;9.90;90.70
13115;DHT22;6623;52.120;8.660;2022-10-26T03:29:18;9.40;90.60
13115;DHT22;6623;52.120;8.660;2022-10-26T03:31:44;9.40;90.60
13115;DHT22;6623;52.120;8.660;2022-10-26T03:34:09;10.30;90.90
13115;DHT22;6623;52.120;8.660;2022-10-26T03:36:35;10.90;91.10
13115;DHT22;6623;52.120;8.660;2022-10-26T03:39:00;9.80;90.80
13115;DHT22;6623;52.120;8.660;2022-10-26T03:41:26;9.40;90.70
13115;DHT22;6623;52.120;8.660;2022-10-26T03:43:51;9.40;90.80
13115;DHT22;6623;52.120;8.660;2022-10-26T03:46:16;9.40;90.90
13115;DHT22;6623;52.120;8.660;2022-10-26T03:48:42;9.40;91.00
13115;DHT22;6623;52.120;8.660;2022-10-26T03:51:07;9.40;91.00
13115;DHT22;6623;52.120;8.660;2022-10-26T03:53:33;9.40;91.00
13115;DHT22;6623;52.120;8.660;2022-10-26T03:55:59;9.40;91.00
13115;DHT22;6623;52.120;8.660;2022-10-26T03:58:24;10.10;91.20
13115;DHT22;6623;52.120;8.660;2022-10-26T04:00:50;9.50;91.00
13115;DHT22;6623;52.120;8.660;2022-10-26T04:03:15;9.70;91.00
13115;DHT22;6623;52.120;8.660;2022-10-26T04:05:41;9.40;90.90
13115;DHT22;6623;52.120;8.660;2022-10-26T04:08:07;10.40;91.20
13115;DHT22;6623;52.120;8.660;2022-10-26T04:10:32;10.00;91.00
13115;DHT22;6623;52.120;8.660;2022-10-26T04:12:58;9.30;90.80
13115;DHT22;6623;52.120;8.660;2022-10-26T04:15:25;10.00;91.00
13115;DHT22;6623;52.120;8.660;2022-10-26T04:17:55;9.30;90.80
13115;DHT22;6623;52.120;8.660;2022-10-26T04:20:21;9.30;90.90
13115;DHT22;6623;52.120;8.660;2022-10-26T04:22:46;9.40;91.00
13115;DHT22;6623;52.120;8.660;2022-10-26T04:25:11;9.20;91.00
13115;DHT22;6623;52.120;8.660;2022-10-26T04:27:37;9.30;91.20
13115;DHT22;6623;52.120;8.660;2022-10-26T04:30:03;9.30;91.20
13115;DHT22;6623;52.120;8.660;2022-10-26T04:32:29;9.30;91.20
13115;DHT22;6623;52.120;8.660;2022-10-26T04:34:55;9.30;91.20
13115;DHT22;6623;52.120;8.660;2022-10-26T04:37:20;9.10;91.20
13115;DHT22;6623;52.120;8.660;2022-10-26T04:39:46;10.00;91.40
13115;DHT22;6623;52.120;8.660;2022-10-26T04:42:11;9.50;91.40
13115;DHT22;6623;52.120;8.660;2022-10-26T04:44:37;9.70;91.40
13115;DHT22;6623;52.120;8.660;2022-10-26T04:47:02;8.70;91.20
13115;DHT22;6623;52.120;8.660;2022-10-26T04:49:28;9.30;91.40
13115;DHT22;6623;52.120;8.660;2022-10-26T04:51:53;9.70;91.50
13115;DHT22;6623;52.120;8.660;2022-10-26T04:54:19;9.60;91.40
13115;DHT22;6623;52.120;8.660;2022-10-26T04:56:44;9.40;91.30
13115;DHT22;6623;52.120;8.660;2022-10-26T04:59:10;9.60;91.40
13115;DHT22;6623;52.120;8.660;2022-10-26T05:01:35;9.30;91.20
13115;DHT22;6623;52.120;8.660;2022-10-26T05:04:01;9.30;91.10
13115;DHT22;6623;52.120;8.660;2022-10-26T05:06:26;9.30;91.00
13115;DHT22;6623;52.120;8.660;2022-10-26T05:08:52;9.40;90.90
13115;DHT22;6623;52.120;8.660;2022-10-26T05:11:17;9.30;90.90
13115;DHT22;6623;52.120;8.660;2022-10-26T05:13:42;9.30;90.90
13115;DHT22;6623;52.120;8.660;2022-10-26T05:16:08;9.60;91.00
13115;DHT22;6623;52.120;8.660;2022-10-26T05:18:36;10.30;91.20
13115;DHT22;6623;52.120;8.660;2022-10-26T05:21:02;9.20;91.00
13115;DHT22;6623;52.120;8.660;2022-10-26T05:23:27;9.20;91.20
13115;DHT22;6623;52.120;8.660;2022-10-26T05:25:53;9.30;91.30
13115;DHT22;6623;52.120;8.660;2022-10-26T05:28:19;10.00;91.50
13115;DHT22;6623;52.120;8.660;2022-10-26T05:30:45;9.20;91.40
13115;DHT22;6623;52.120;8.660;2022-10-26T05:33:11;9.70;91.60
13115;DHT22;6623;52.120;8.660;2022-10-26T05:35:36;9.30;91.60
13115;DHT22;6623;52.120;8.660;2022-10-26T05:38:20;9.20;91.70
13115;DHT22;6623;52.120;8.660;2022-10-26T05:40:46;9.30;91.80
13115;DHT22;6623;52.120;8.660;2022-10-26T05:43:12;9.30;92.00
13115;DHT22;6623;52.120;8.660;2022-10-26T05:45:38;10.10;92.30
13115;DHT22;6623;52.120;8.660;2022-10-26T05:48:04;9.30;92.20
13115;DHT22;6623;52.120;8.660;2022-10-26T05:50:29;9.40;92.40
13115;DHT22;6623;52.120;8.660;2022-10-26T05:52:55;9.40;92.60
13115;DHT22;6623;52.120;8.660;2022-10-26T05:55:20;9.40;92.70
13115;DHT22;6623;52.120;8.660;2022-10-26T05:57:46;9.40;93.00
13115;DHT22;6623;52.120;8.660;2022-10-26T06:00:16;9.50;92.70
13115;DHT22;6623;52.120;8.660;2022-10-26T06:05:13;9.50;92.80
13115;DHT22;6623;52.120;8.660;2022-10-26T06:07:40;9.80;93.30
13115;DHT22;6623;52.120;8.660;2022-10-26T06:10:05;9.50;93.00
13115;DHT22;6623;52.120;8.660;2022-10-26T06:12:31;9.50;93.00
13115;DHT22;6623;52.120;8.660;2022-10-26T06:14:57;9.50;93.20
13115;DHT22;6623;52.120;8.660;2022-10-26T06:24:57;9.50;93.50
13115;DHT22;6623;52.120;8.660;2022-10-26T06:27:48;9.60;93.50
13115;DHT22;6623;52.120;8.660;2022-10-26T06:30:16;9.70;93.50
13115;DHT22;6623;52.120;8.660;2022-10-26T06:32:44;9.70;93.50
13115;DHT22;6623;52.120;8.660;2022-10-26T06:37:40;9.70;93.60
13115;DHT22;6623;52.120;8.660;2022-10-26T06:40:07;9.20;93.60
13115;DHT22;6623;52.120;8.660;2022-10-26T06:42:36;9.80;93.80
13115;DHT22;6623;52.120;8.660;2022-10-26T06:50:23;9.90;93.90
13115;DHT22;6623;52.120;8.660;2022-10-26T06:52:54;9.90;94.00
13115;DHT22;6623;52.120;8.660;2022-10-26T06:55:21;9.50;93.90
13115;DHT22;6623;52.120;8.660;2022-10-26T06:57:47;9.90;94.00
13115;DHT22;6623;52.120;8.660;2022-10-26T07:00:18;10.30;94.10
13115;DHT22;6623;52.120;8.660;2022-10-26T07:02:44;10.00;94.10
13115;DHT22;6623;52.120;8.660;2022-10-26T07:05:10;10.00;94.10
13115;DHT22;6623;52.120;8.660;2022-10-26T07:07:42;10.00;94.10
13115;DHT22;6623;52.120;8.660;2022-10-26T07:10:08;10.10;94.10
13115;DHT22;6623;52.120;8.660;2022-10-26T07:15:22;10.10;94.10
13115;DHT22;6623;52.120;8.660;2022-10-26T07:17:48;11.30;94.40
13115;DHT22;6623;52.120;8.660;2022-10-26T07:20:17;10.00;94.10
13115;DHT22;6623;52.120;8.660;2022-10-26T07:22:43;10.20;94.40
13115;DHT22;6623;52.120;8.660;2022-10-26T07:25:08;10.40;94.30
13115;DHT22;6623;52.120;8.660;2022-10-26T07:27:34;10.30;94.20
13115;DHT22;6623;52.120;8.660;2022-10-26T07:29:59;10.30;94.20
13115;DHT22;6623;52.120;8.660;2022-10-26T07:32:25;10.00;94.20
13115;DHT22;6623;52.120;8.660;2022-10-26T07:34:50;10.40;94.30
13115;DHT22;6623;52.120;8.660;2022-10-26T07:37:18;11.20;94.50
13115;DHT22;6623;52.120;8.660;2022-10-26T07:39:44;10.40;94.30
13115;DHT22;6623;52.120;8.660;2022-10-26T07:42:09;11.70;94.60
13115;DHT22;6623;52.120;8.660;2022-10-26T07:44:35;10.80;94.40
13115;DHT22;6623;52.120;8.660;2022-10-26T07:47:00;11.30;94.60
13115;DHT22;6623;52.120;8.660;2022-10-26T07:49:29;10.60;94.40
13115;DHT22;6623;52.120;8.660;2022-10-26T07:51:54;10.60;94.30
13115;DHT22;6623;52.120;8.660;2022-10-26T07:54:20;11.10;94.40
13115;DHT22;6623;52.120;8.660;2022-10-26T07:56:47;11.60;94.50
13115;DHT22;6623;52.120;8.660;2022-10-26T07:59:13;11.20;94.40
13115;DHT22;6623;52.120;8.660;2022-10-26T08:01:38;10.80;94.20
13115;DHT22;6623;52.120;8.660;2022-10-26T08:04:04;12.10;94.60
13115;DHT22;6623;52.120;8.660;2022-10-26T08:06:32;11.00;94.20
13115;DHT22;6623;52.120;8.660;2022-10-26T08:08:58;10.80;94.10
13115;DHT22;6623;52.120;8.660;2022-10-26T08:11:23;10.90;94.10
13115;DHT22;6623;52.120;8.660;2022-10-26T08:13:52;11.10;94.10
13115;DHT22;6623;52.120;8.660;2022-10-26T08:16:18;10.90;93.90
13115;DHT22;6623;52.120;8.660;2022-10-26T08:18:46;11.10;93.90
13115;DHT22;6623;52.120;8.660;2022-10-26T08:21:11;10.90;93.90
13115;DHT22;6623;52.120;8.660;2022-10-26T08:23:37;10.90;93.90
13115;DHT22;6623;52.120;8.660;2022-10-26T08:26:03;11.00;93.90
13115;DHT22;6623;52.120;8.660;2022-10-26T08:28:28;10.90;93.90
13115;DHT22;6623;52.120;8.660;2022-10-26T08:30:57;11.40;94.00
13115;DHT22;6623;52.120;8.660;2022-10-26T08:33:23;10.70;93.90
13115;DHT22;6623;52.120;8.660;2022-10-26T08:35:49;11.00;94.00
13115;DHT22;6623;52.120;8.660;2022-10-26T08:38:18;10.80;94.00
13115;DHT22;6623;52.120;8.660;2022-10-26T08:40:44;10.80;94.00
13115;DHT22;6623;52.120;8.660;2022-10-26T08:43:29;11.10;94.10
13115;DHT22;6623;52.120;8.660;2022-10-26T08:48:31;11.10;94.10
13115;DHT22;6623;52.120;8.660;2022-10-26T08:50:58;12.10;94.30
13115;DHT22;6623;52.120;8.660;2022-10-26T08:56:20;11.30;94.00
13115;DHT22;6623;52.120;8.660;2022-10-26T08:58:50;11.30;94.00
13115;DHT22;6623;52.120;8.660;2022-10-26T09:01:17;11.40;94.00
13115;DHT22;6623;52.120;8.660;2022-10-26T09:03:43;11.80;94.10
13115;DHT22;6623;52.120;8.660;2022-10-26T09:13:54;11.60;93.80
13115;DHT22;6623;52.120;8.660;2022-10-26T09:16:38;11.60;93.80
13115;DHT22;6623;52.120;8.660;2022-10-26T09:19:25;11.60;93.80
13115;DHT22;6623;52.120;8.660;2022-10-26T09:24:51;11.70;93.70
13115;DHT22;6623;52.120;8.660;2022-10-26T09:29:45;11.80;93.50
13115;DHT22;6623;52.120;8.660;2022-10-26T09:32:19;11.90;93.40
13115;DHT22;6623;52.120;8.660;2022-10-26T09:34:51;12.00;93.40
13115;DHT22;6623;52.120;8.660;2022-10-26T09:37:25;12.00;93.20
13115;DHT22;6623;52.120;8.660;2022-10-26T09:42:22;12.20;92.80
13115;DHT22;6623;52.120;8.660;2022-10-26T09:44:52;13.10;93.00
13115;DHT22;6623;52.120;8.660;2022-10-26T09:47:36;12.40;92.80
13115;DHT22;6623;52.120;8.660;2022-10-26T09:52:33;12.60;92.60
13115;DHT22;6623;52.120;8.660;2022-10-26T09:55:02;13.70;92.70
13115;DHT22;6623;52.120;8.660;2022-10-26T09:57:27;12.70;92.20
13115;DHT22;6623;52.120;8.660;2022-10-26T09:59:56;12.60;91.80
13115;DHT22;6623;52.120;8.660;2022-10-26T10:02:31;12.20;91.80
13115;DHT22;6623;52.120;8.660;2022-10-26T10:04:57;12.90;91.80
13115;DHT22;6623;52.120;8.660;2022-10-26T10:07:22;12.90;91.70
13115;DHT22;6623;52.120;8.660;2022-10-26T10:12:32;13.10;91.40
13115;DHT22;6623;52.120;8.660;2022-10-26T10:14:58;13.10;91.40
13115;DHT22;6623;52.120;8.660;2022-10-26T10:17:26;13.10;91.40
13115;DHT22;6623;52.120;8.660;2022-10-26T10:19:52;13.20;91.40
13115;DHT22;6623;52.120;8.660;2022-10-26T10:22:18;13.30;91.50
13115;DHT22;6623;52.120;8.660;2022-10-26T10:24:59;13.10;91.30
13115;DHT22;6623;52.120;8.660;2022-10-26T10:27:25;13.20;91.30
13115;DHT22;6623;52.120;8.660;2022-10-26T10:29:52;13.20;91.10
13115;DHT22;6623;52.120;8.660;2022-10-26T10:32:22;12.50;90.80
13115;DHT22;6623;52.120;8.660;2022-10-26T10:34:49;13.30;90.90
13115;DHT22;6623;52.120;8.660;2022-10-26T10:37:21;14.00;90.90
13115;DHT22;6623;52.120;8.660;2022-10-26T10:39:47;14.10;90.80
13115;DHT22;6623;52.120;8.660;2022-10-26T10:42:15;13.30;90.70
13115;DHT22;6623;52.120;8.660;2022-10-26T10:44:41;14.00;90.90
13115;DHT22;6623;52.120;8.660;2022-10-26T10:47:13;14.20;91.10
13115;DHT22;6623;52.120;8.660;2022-10-26T10:49:40;13.00;90.90
13115;DHT22;6623;52.120;8.660;2022-10-26T10:52:10;13.50;91.00
13115;DHT22;6623;52.120;8.660;2022-10-26T10:54:46;13.60;90.90
13115;DHT22;6623;52.120;8.660;2022-10-26T10:57:36;13.80;90.90
13115;DHT22;6623;52.120;8.660;2022-10-26T11:00:07;13.40;90.60
13115;DHT22;6623;52.120;8.660;2022-10-26T11:07:51;13.50;90.60
13115;DHT22;6623;52.120;8.660;2022-10-26T11:10:18;13.50;90.70
13115;DHT22;6623;52.120;8.660;2022-10-26T11:12:56;13.50;90.80
13115;DHT22;6623;52.120;8.660;2022-10-26T11:15:23;13.60;90.80
13115;DHT22;6623;52.120;8.660;2022-10-26T11:17:52;14.20;90.90
13115;DHT22;6623;52.120;8.660;2022-10-26T11:20:21;14.20;90.90
13115;DHT22;6623;52.120;8.660;2022-10-26T11:25:36;13.70;90.70
13115;DHT22;6623;52.120;8.660;2022-10-26T11:30:59;13.70;90.60
13115;DHT22;6623;52.120;8.660;2022-10-26T11:33:26;14.20;90.90
13115;DHT22;6623;52.120;8.660;2022-10-26T11:36:14;13.70;90.70
13115;DHT22;6623;52.120;8.660;2022-10-26T11:38:54;13.80;90.80
13115;DHT22;6623;52.120;8.660;2022-10-26T11:41:28;13.70;90.70
13115;DHT22;6623;52.120;8.660;2022-10-26T11:43:56;13.90;90.60
13115;DHT22;6623;52.120;8.660;2022-10-26T11:46:46;14.90;90.80
13115;DHT22;6623;52.120;8.660;2022-10-26T11:49:16;13.90;90.50
13115;DHT22;6623;52.120;8.660;2022-10-26T11:51:46;14.90;90.30
13115;DHT22;6623;52.120;8.660;2022-10-26T11:54:18;14.50;90.30
13115;DHT22;6623;52.120;8.660;2022-10-26T11:56:49;14.10;90.20
13115;DHT22;6623;52.120;8.660;2022-10-26T11:59:17;14.10;90.20
13115;DHT22;6623;52.120;8.660;2022-10-26T12:01:46;14.10;90.20
13115;DHT22;6623;52.120;8.660;2022-10-26T12:04:11;15.00;90.60
13115;DHT22;6623;52.120;8.660;2022-10-26T12:06:37;13.80;90.10
13115;DHT22;6623;52.120;8.660;2022-10-26T12:09:07;14.50;90.20
13115;DHT22;6623;52.120;8.660;2022-10-26T12:11:37;14.20;90.20
13115;DHT22;6623;52.120;8.660;2022-10-26T12:14:13;14.20;90.10
13115;DHT22;6623;52.120;8.660;2022-10-26T12:16:48;14.30;90.00
13115;DHT22;6623;52.120;8.660;2022-10-26T12:22:00;14.30;90.10
13115;DHT22;6623;52.120;8.660;2022-10-26T12:24:27;14.40;90.10
13115;DHT22;6623;52.120;8.660;2022-10-26T12:26:57;14.40;90.10
13115;DHT22;6623;52.120;8.660;2022-10-26T12:29:27;14.40;90.10
13115;DHT22;6623;52.120;8.660;2022-10-26T12:31:53;14.50;90.00
13115;DHT22;6623;52.120;8.660;2022-10-26T12:34:23;14.60;90.00
13115;DHT22;6623;52.120;8.660;2022-10-26T12:39:39;14.60;90.00
13115;DHT22;6623;52.120;8.660;2022-10-26T12:44:35;15.10;90.10
13115;DHT22;6623;52.120;8.660;2022-10-26T12:47:01;14.60;89.90
13115;DHT22;6623;52.120;8.660;2022-10-26T12:52:24;14.60;90.00
13115;DHT22;6623;52.120;8.660;2022-10-26T12:57:49;14.60;90.10
13115;DHT22;6623;52.120;8.660;2022-10-26T13:00:17;14.70;90.20
13115;DHT22;6623;52.120;8.660;2022-10-26T13:05:55;14.70;88.80
13115;DHT22;6623;52.120;8.660;2022-10-26T13:08:22;14.90;88.30
13115;DHT22;6623;52.120;8.660;2022-10-26T13:13:25;14.90;87.60
13115;DHT22;6623;52.120;8.660;2022-10-26T13:15:54;15.10;87.00
13115;DHT22;6623;52.120;8.660;2022-10-26T13:18:20;15.10;87.10
13115;DHT22;6623;52.120;8.660;2022-10-26T13:23:20;15.00;86.80
13115;DHT22;6623;52.120;8.660;2022-10-26T13:26:05;15.10;86.80
13115;DHT22;6623;52.120;8.660;2022-10-26T13:31:04;15.10;87.10
13115;DHT22;6623;52.120;8.660;2022-10-26T13:33:30;15.40;87.00
13115;DHT22;6623;52.120;8.660;2022-10-26T13:35:59;15.50;86.50
13115;DHT22;6623;52.120;8.660;2022-10-26T13:38:27;15.40;86.50
13115;DHT22;6623;52.120;8.660;2022-10-26T13:40:57;15.50;86.90
13115;DHT22;6623;52.120;8.660;2022-10-26T13:43:24;15.40;87.10
13115;DHT22;6623;52.120;8.660;2022-10-26T13:45:58;16.10;87.30
13115;DHT22;6623;52.120;8.660;2022-10-26T13:48:39;15.50;87.10
13115;DHT22;6623;52.120;8.660;2022-10-26T13:56:12;15.50;87.00
13115;DHT22;6623;52.120;8.660;2022-10-26T13:58:48;15.60;86.80
13115;DHT22;6623;52.120;8.660;2022-10-26T14:01:15;15.70;86.50
13115;DHT22;6623;52.120;8.660;2022-10-26T14:03:42;15.90;86.60
13115;DHT22;6623;52.120;8.660;2022-10-26T14:06:13;15.30;86.20
13115;DHT22;6623;52.120;8.660;2022-10-26T14:08:40;15.70;86.60
13115;DHT22;6623;52.120;8.660;2022-10-26T14:11:06;16.50;87.00
13115;DHT22;6623;52.120;8.660;2022-10-26T14:13:34;16.60;87.20
13115;DHT22;6623;52.120;8.660;2022-10-26T14:15:59;15.80;87.00
13115;DHT22;6623;52.120;8.660;2022-10-26T14:18:26;15.70;87.00
13115;DHT22;6623;52.120;8.660;2022-10-26T14:20:59;16.30;87.00
13115;DHT22;6623;52.120;8.660;2022-10-26T14:23:26;15.70;86.50
13115;DHT22;6623;52.120;8.660;2022-10-26T14:25:52;16.00;86.70
13115;DHT22;6623;52.120;8.660;2022-10-26T14:28:19;16.00;86.90
13115;DHT22;6623;52.120;8.660;2022-10-26T14:30:45;15.90;86.60
13115;DHT22;6623;52.120;8.660;2022-10-26T14:33:17;15.70;86.60
13115;DHT22;6623;52.120;8.660;2022-10-26T14:35:43;15.70;86.60
13115;DHT22;6623;52.120;8.660;2022-10-26T14:38:13;15.60;86.10
13115;DHT22;6623;52.120;8.660;2022-10-26T14:40:39;15.80;86.00
13115;DHT22;6623;52.120;8.660;2022-10-26T14:43:05;15.70;85.90
13115;DHT22;6623;52.120;8.660;2022-10-26T14:45:34;15.70;86.00
13115;DHT22;6623;52.120;8.660;2022-10-26T14:48:01;15.70;85.80
13115;DHT22;6623;52.120;8.660;2022-10-26T14:50:26;15.70;85.90
13115;DHT22;6623;52.120;8.660;2022-10-26T14:53:12;15.70;85.90
13115;DHT22;6623;52.120;8.660;2022-10-26T14:55:45;15.70;86.00
13115;DHT22;6623;52.120;8.660;2022-10-26T14:58:21;15.70;86.00
13115;DHT22;6623;52.120;8.660;2022-10-26T15:01:12;15.70;86.20
13115;DHT22;6623;52.120;8.660;2022-10-26T15:03:33;16.50;86.50
13115;DHT22;6623;52.120;8.660;2022-10-26T15:06:20;16.40;86.60
13115;DHT22;6623;52.120;8.660;2022-10-26T15:08:44;15.80;86.30
13115;DHT22;6623;52.120;8.660;2022-10-26T15:11:11;15.90;86.50
13115;DHT22;6623;52.120;8.660;2022-10-26T15:13:39;16.70;87.00
13115;DHT22;6623;52.120;8.660;2022-10-26T15:16:26;16.20;86.90
13115;DHT22;6623;52.120;8.660;2022-10-26T15:19:14;15.60;86.60
13115;DHT22;6623;52.120;8.660;2022-10-26T15:21:38;15.60;86.80
13115;DHT22;6623;52.120;8.660;2022-10-26T15:26:44;15.50;87.10
13115;DHT22;6623;52.120;8.660;2022-10-26T15:31:58;15.50;87.30
13115;DHT22;6623;52.120;8.660;2022-10-26T15:34:24;15.50;87.30
13115;DHT22;6623;52.120;8.660;2022-10-26T15:36:50;15.40;87.30
13115;DHT22;6623;52.120;8.660;2022-10-26T15:39:15;16.30;88.00
13115;DHT22;6623;52.120;8.660;2022-10-26T15:41:44;15.50;87.60
13115;DHT22;6623;52.120;8.660;2022-10-26T15:44:12;15.40;87.60
13115;DHT22;6623;52.120;8.660;2022-10-26T15:46:40;15.80;88.00
13115;DHT22;6623;52.120;8.660;2022-10-26T15:49:06;15.30;87.80
13115;DHT22;6623;52.120;8.660;2022-10-26T15:51:32;15.30;87.90
13115;DHT22;6623;52.120;8.660;2022-10-26T15:53:58;15.30;87.80
13115;DHT22;6623;52.120;8.660;2022-10-26T15:56:24;15.40;88.00
13115;DHT22;6623;52.120;8.660;2022-10-26T15:58:50;15.40;88.00
13115;DHT22;6623;52.120;8.660;2022-10-26T16:01:16;16.40;88.70
13115;DHT22;6623;52.120;8.660;2022-10-26T16:03:42;15.50;88.10
13115;DHT22;6623;52.120;8.660;2022-10-26T16:06:08;16.00;88.40
13115;DHT22;6623;52.120;8.660;2022-10-26T16:08:36;15.20;88.10
13115;DHT22;6623;52.120;8.660;2022-10-26T16:11:01;15.20;88.10
13115;DHT22;6623;52.120;8.660;2022-10-26T16:13:27;15.30;88.30
13115;DHT22;6623;52.120;8.660;2022-10-26T16:15:54;15.10;88.20
13115;DHT22;6623;52.120;8.660;2022-10-26T16:18:20;14.70;88.10
13115;DHT22;6623;52.120;8.660;2022-10-26T16:20:45;15.10;88.50
13115;DHT22;6623;52.120;8.660;2022-10-26T16:23:11;15.10;88.60
13115;DHT22;6623;52.120;8.660;2022-10-26T16:25:41;15.00;88.60
13115;DHT22;6623;52.120;8.660;2022-10-26T16:28:08;15.00;88.60
13115;DHT22;6623;52.120;8.660;2022-10-26T16:30:36;15.00;88.80
13115;DHT22;6623;52.120;8.660;2022-10-26T16:33:01;15.60;89.20
13115;DHT22;6623;52.120;8.660;2022-10-26T16:35:27;14.90;89.10
13115;DHT22;6623;52.120;8.660;2022-10-26T16:37:52;14.90;89.10
13115;DHT22;6623;52.120;8.660;2022-10-26T16:40:18;15.00;89.30
13115;DHT22;6623;52.120;8.660;2022-10-26T16:42:43;14.80;89.50
13115;DHT22;6623;52.120;8.660;2022-10-26T16:45:09;15.20;89.70
13115;DHT22;6623;52.120;8.660;2022-10-26T16:47:35;14.80;89.50
13115;DHT22;6623;52.120;8.660;2022-10-26T16:50:03;15.80;90.10
13115;DHT22;6623;52.120;8.660;2022-10-26T16:52:29;14.70;89.80
13115;DHT22;6623;52.120;8.660;2022-10-26T16:54:54;15.00;90.00
13115;DHT22;6623;52.120;8.660;2022-10-26T16:57:20;15.70;90.30
13115;DHT22;6623;52.120;8.660;2022-10-26T16:59:45;14.80;90.00
13115;DHT22;6623;52.120;8.660;2022-10-26T17:02:14;14.90;90.10
13115;DHT22;6623;52.120;8.660;2022-10-26T17:04:39;14.60;90.00
13115;DHT22;6623;52.120;8.660;2022-10-26T17:07:05;14.60;90.00
13115;DHT22;6623;52.120;8.660;2022-10-26T17:09:30;14.70;90.10
13115;DHT22;6623;52.120;8.660;2022-10-26T17:11:56;14.60;90.10
13115;DHT22;6623;52.120;8.660;2022-10-26T17:14:21;14.50;90.10
13115;DHT22;6623;52.120;8.660;2022-10-26T17:16:47;14.40;90.10
13115;DHT22;6623;52.120;8.660;2022-10-26T17:19:13;15.10;90.30
13115;DHT22;6623;52.120;8.660;2022-10-26T17:21:38;14.40;90.20
13115;DHT22;6623;52.120;8.660;2022-10-26T17:24:04;15.00;90.40
13115;DHT22;6623;52.120;8.660;2022-10-26T17:26:31;14.30;90.30
13115;DHT22;6623;52.120;8.660;2022-10-26T17:28:56;14.30;90.40
13115;DHT22;6623;52.120;8.660;2022-10-26T17:31:22;15.10;90.60
13115;DHT22;6623;52.120;8.660;2022-10-26T17:33:48;15.50;91.00
13115;DHT22;6623;52.120;8.660;2022-10-26T17:36:16;14.40;90.70
13115;DHT22;6623;52.120;8.660;2022-10-26T17:38:42;14.70;90.90
13115;DHT22;6623;52.120;8.660;2022-10-26T17:41:08;14.90;91.00
13115;DHT22;6623;52.120;8.660;2022-10-26T17:43:35;14.90;91.00
13115;DHT22;6623;52.120;8.660;2022-10-26T17:46:02;14.30;90.90
13115;DHT22;6623;52.120;8.660;2022-10-26T17:48:27;14.20;90.70
13115;DHT22;6623;52.120;8.660;2022-10-26T17:50:53;14.90;91.10
13115;DHT22;6623;52.120;8.660;2022-10-26T17:53:19;14.10;90.90
13115;DHT22;6623;52.120;8.660;2022-10-26T17:55:44;14.50;91.00
13115;DHT22;6623;52.120;8.660;2022-10-26T17:58:10;14.50;90.90